createdAt,value
2023-03-07T00:08:37.250Z,7.92
2023-03-07T00:23:40.097Z,7.95
2023-03-07T00:38:42.612Z,7.59
2023-03-07T00:53:45.630Z,7.12
2023-03-07T01:08:48.401Z,6.86
2023-03-07T01:23:52.065Z,6.72
2023-03-07T01:38:55.144Z,6.57
2023-03-07T01:53:57.640Z,6.29
2023-03-07T02:09:00.429Z,6.01
2023-03-07T02:24:03.403Z,5.64
2023-03-07T02:39:05.916Z,5.4
2023-03-07T02:54:08.648Z,5.24
2023-03-07T03:09:11.034Z,4.69
2023-03-07T03:24:13.850Z,4.49
2023-03-07T03:39:16.585Z,3.82
2023-03-07T03:54:19.259Z,4
2023-03-07T04:09:22.102Z,3.83
2023-03-07T04:24:24.828Z,3.92
2023-03-07T04:39:27.238Z,4.33
2023-03-07T04:54:29.588Z,4.09
2023-03-07T05:09:31.919Z,4.29
2023-03-07T05:24:34.207Z,4.13
2023-03-07T05:39:36.532Z,4.26
2023-03-07T05:54:38.864Z,4.46
2023-03-07T06:09:41.213Z,3.93
2023-03-07T06:24:43.586Z,4.11
2023-03-07T06:39:45.980Z,3.8
2023-03-07T06:54:48.375Z,3.81
2023-03-07T07:09:50.668Z,3.8
2023-03-07T07:24:52.956Z,3.95
2023-03-07T07:39:55.404Z,3.1
2023-03-07T07:54:57.691Z,3.75
2023-03-07T08:09:59.960Z,3.75
2023-03-07T08:25:02.302Z,3.79
2023-03-07T08:40:04.661Z,3.42
2023-03-07T08:55:06.931Z,3.64
2023-03-07T09:10:09.235Z,3.62
2023-03-07T09:25:11.712Z,4.1
2023-03-07T09:40:14.035Z,4.18
2023-03-07T09:55:16.385Z,4.05
2023-03-07T10:10:18.658Z,3.85
2023-03-07T10:25:20.940Z,4.05
2023-03-07T10:40:23.258Z,4.07
2023-03-07T10:55:25.576Z,3.97
2023-03-07T11:10:27.951Z,3.74
2023-03-07T11:25:30.290Z,3.1
2023-03-07T11:40:32.754Z,3.15
2023-03-07T11:55:36.105Z,3.2
2023-03-07T12:10:38.484Z,3.16
2023-03-07T12:25:40.865Z,3.07
2023-03-07T12:40:43.148Z,2.55
2023-03-07T12:55:45.458Z,2.46
2023-03-07T13:10:47.862Z,2.92
2023-03-07T13:25:50.178Z,2.98
2023-03-07T13:40:52.485Z,3.07
2023-03-07T13:55:54.839Z,3
2023-03-07T14:10:57.185Z,3.28
2023-03-07T14:25:59.490Z,3.15
2023-03-07T14:41:01.811Z,2.7
2023-03-07T14:56:04.281Z,2.97
2023-03-07T15:11:06.595Z,2.94
2023-03-07T15:26:08.900Z,2.99
2023-03-07T15:41:11.221Z,3.29
2023-03-07T15:56:13.556Z,3.24
2023-03-07T16:11:15.910Z,3.88
2023-03-07T16:26:18.271Z,4.36
2023-03-07T16:41:20.649Z,5.02
2023-03-07T16:56:22.991Z,6.09
2023-03-07T17:11:25.494Z,5.29
2023-03-07T17:26:27.826Z,5.35
2023-03-07T17:41:30.178Z,5.38
2023-03-07T17:56:32.495Z,5.68
2023-03-07T18:11:34.896Z,5.57
2023-03-07T18:26:37.203Z,5.78
2023-03-07T18:41:39.519Z,6.07
2023-03-07T18:56:41.878Z,5.41
2023-03-07T19:11:44.461Z,5.99
2023-03-07T19:26:46.763Z,6.55
2023-03-07T19:41:49.135Z,6.5
2023-03-07T19:56:51.564Z,7.36
2023-03-07T20:11:53.875Z,7.8
2023-03-07T20:26:56.176Z,7.66
2023-03-07T20:41:58.544Z,8
2023-03-07T20:57:00.865Z,7.66
2023-03-07T21:12:03.157Z,8.07
2023-03-07T21:27:05.494Z,8.09
2023-03-07T21:42:07.772Z,8.8
2023-03-07T21:57:10.137Z,8.9
2023-03-07T22:12:12.491Z,8.69
2023-03-07T22:27:14.784Z,8.77
2023-03-07T22:42:17.100Z,9.34
2023-03-07T22:57:19.377Z,9.56
2023-03-07T23:12:21.875Z,9.27
2023-03-07T23:27:24.230Z,9.34
2023-03-07T23:42:26.544Z,8.85
2023-03-07T23:57:28.943Z,8.88
